Time;durP1;ratioP1;P1;durP2;ratioP2;P2;SDS_P1;SDS_P2;PMS_P1;PMS_P2;Temp;Humidity;BMP_temperature;BMP_pressure;BME280_temperature;BME280_humidity;BME280_pressure;Samples;Min_cycle;Max_cycle;Signal;HPM_P1;HPM_P2
2021/01/19 00:02:20;;;;;;;194.75;60.25;;;;;;;-16.53;67.30;100611.67;1751894;81;26302;-58
2021/01/19 00:04:46;;;;;;;183.20;56.92;;;;;;;-16.53;67.15;100603.42;1752307;81;25726;-58
2021/01/19 00:07:13;;;;;;;175.50;59.20;;;;;;;-16.57;66.95;100603.34;1752195;81;25990;-58
2021/01/19 00:09:40;;;;;;;184.67;59.08;;;;;;;-16.59;67.02;100603.46;1752044;81;25957;-55
2021/01/19 00:12:07;;;;;;;186.05;58.05;;;;;;;-16.60;67.02;100595.36;1748242;81;48937;-57
2021/01/19 00:14:34;;;;;;;181.97;57.60;;;;;;;-16.62;67.12;100599.82;1752084;81;25743;-51
2021/01/19 00:17:01;;;;;;;193.20;58.60;;;;;;;-16.62;67.37;100600.30;1752006;81;25884;-58
2021/01/19 00:19:28;;;;;;;194.65;58.52;;;;;;;-16.63;67.48;100596.91;1751775;81;25766;-57
2021/01/19 00:21:55;;;;;;;154.57;49.45;;;;;;;-16.65;67.46;100585.86;1751960;81;25776;-52
2021/01/19 00:24:22;;;;;;;178.45;54.13;;;;;;;-16.67;67.36;100583.84;1751873;81;26137;-56
2021/01/19 00:26:49;;;;;;;194.52;57.98;;;;;;;-16.68;67.13;100582.67;1751969;81;26416;-56
2021/01/19 00:29:15;;;;;;;182.85;58.20;;;;;;;-16.67;67.19;100573.48;1752235;81;26453;-56
2021/01/19 00:31:42;;;;;;;195.70;60.03;;;;;;;-16.62;67.52;100570.53;1751986;81;25785;-56
2021/01/19 00:34:09;;;;;;;189.25;56.23;;;;;;;-16.61;67.39;100569.11;1752155;81;25772;-53
2021/01/19 00:36:35;;;;;;;199.53;60.23;;;;;;;-16.62;67.35;100567.45;1752184;81;25718;-54
2021/01/19 00:39:03;;;;;;;199.20;59.77;;;;;;;-16.62;67.18;100564.87;1751918;81;25768;-49
2021/01/19 00:41:30;;;;;;;209.43;62.78;;;;;;;-16.66;66.99;100562.20;1752513;81;25891;-57
2021/01/19 00:43:57;;;;;;;193.40;59.60;;;;;;;-16.69;66.98;100562.92;1752532;81;26162;-56
2021/01/19 00:46:24;;;;;;;171.10;55.52;;;;;;;-16.72;66.94;100565.27;1752210;81;25805;-54
2021/01/19 00:48:51;;;;;;;178.25;56.53;;;;;;;-16.80;67.12;100561.19;1719518;81;26369;-56
2021/01/19 00:51:19;;;;;;;172.40;56.90;;;;;;;-16.82;67.45;100563.09;1751995;81;25889;-56
2021/01/19 00:53:46;;;;;;;171.32;54.23;;;;;;;-16.81;67.51;100563.45;1751885;81;25412;-53
2021/01/19 00:56:13;;;;;;;196.02;53.63;;;;;;;-16.77;67.78;100562.24;1752135;81;25834;-58
2021/01/19 00:58:39;;;;;;;184.85;55.88;;;;;;;-16.76;67.98;100569.88;1752193;81;25938;-56
2021/01/19 01:01:06;;;;;;;167.13;49.45;;;;;;;-16.75;68.04;100568.95;1751889;81;26184;-56
2021/01/19 01:03:34;;;;;;;155.80;53.05;;;;;;;-16.70;68.12;100561.27;1752147;81;26287;-51
2021/01/19 01:06:02;;;;;;;164.30;48.70;;;;;;;-16.66;68.18;100560.09;1752209;81;26372;-55
2021/01/19 01:08:28;;;;;;;182.55;53.08;;;;;;;-16.70;68.01;100553.02;1752035;81;25764;-56
2021/01/19 01:10:56;;;;;;;166.18;52.43;;;;;;;-16.67;68.17;100548.89;1752388;81;25675;-55
2021/01/19 01:13:22;;;;;;;169.50;55.43;;;;;;;-16.65;68.33;100548.77;1738918;81;25866;-54
2021/01/19 01:15:49;;;;;;;174.47;54.25;;;;;;;-16.67;68.54;100538.53;1739309;81;25763;-52
2021/01/19 01:18:16;;;;;;;168.52;50.98;;;;;;;-16.66;68.62;100542.78;1739377;82;25651;-52
2021/01/19 01:20:43;;;;;;;180.15;54.65;;;;;;;-16.65;68.80;100539.25;1739342;82;25960;-57
2021/01/19 01:23:13;;;;;;;152.32;51.37;;;;;;;-16.62;68.79;100538.98;1738999;82;25772;-55
2021/01/19 01:25:41;;;;;;;160.85;51.70;;;;;;;-16.59;68.80;100538.73;1770451;80;26732;-56
2021/01/19 01:28:08;;;;;;;169.65;54.08;;;;;;;-16.55;68.83;100533.66;1762750;81;26069;-54
2021/01/19 01:30:34;;;;;;;174.05;53.13;;;;;;;-16.50;68.96;100530.67;1770494;80;26467;-55
2021/01/19 01:33:01;;;;;;;172.20;53.38;;;;;;;-16.47;68.97;100522.65;1770445;80;25774;-50
2021/01/19 01:35:28;;;;;;;156.28;49.15;;;;;;;-16.46;68.98;100526.89;1770629;80;25808;-55
2021/01/19 01:37:55;;;;;;;170.28;55.48;;;;;;;-16.47;68.98;100526.53;1762690;81;26848;-52
2021/01/19 01:40:26;;;;;;;176.02;53.08;;;;;;;-16.44;68.94;100518.52;1747187;80;25782;-55
2021/01/19 01:42:57;;;;;;;168.35;51.58;;;;;;;-16.43;69.19;100511.55;1739635;81;25919;-52
2021/01/19 01:45:28;;;;;;;164.05;52.05;;;;;;;-16.38;69.11;100522.35;1739418;81;26023;-50
2021/01/19 01:47:57;;;;;;;163.12;49.80;;;;;;;-16.41;69.21;100508.36;1737489;82;25930;-52
2021/01/19 01:50:25;;;;;;;174.23;51.42;;;;;;;-16.42;68.93;100508.84;1739883;82;25788;-46
2021/01/19 01:52:52;;;;;;;172.78;54.30;;;;;;;-16.42;68.96;100508.03;1739188;81;25597;-55
2021/01/19 01:55:20;;;;;;;173.15;52.93;;;;;;;-16.41;69.17;100503.17;1739551;81;25961;-47
2021/01/19 01:57:48;;;;;;;177.62;52.33;;;;;;;-16.40;69.28;100513.41;1737528;82;25766;-57
2021/01/19 02:00:17;;;;;;;160.32;47.55;;;;;;;-16.38;69.23;100510.70;1739530;82;25705;-54
2021/01/19 02:02:56;;;;;;;178.27;55.63;;;;;;;-16.31;69.49;100500.64;1739800;81;26334;-54
2021/01/19 02:05:25;;;;;;;175.12;53.25;;;;;;;-16.26;69.60;100502.37;1739724;81;26087;-54
2021/01/19 02:08:24;;;;;;;167.35;49.48;;;;;;;-16.26;69.56;100495.89;1737453;82;25728;-54
2021/01/19 02:11:23;;;;;;;161.65;48.68;;;;;;;-16.18;69.84;100495.58;1697472;81;25924;-50
2021/01/19 02:14:04;;;;;;;156.65;47.78;;;;;;;-16.14;69.84;100489.66;1735571;81;25803;-55
2021/01/19 02:16:58;;;;;;;173.80;53.02;;;;;;;-16.05;69.81;100491.48;1739441;81;27123;-52
2021/01/19 02:20:02;;;;;;;163.30;51.95;;;;;;;-16.00;69.72;100489.31;1726136;82;25657;-55
2021/01/19 02:23:04;;;;;;;160.80;48.68;;;;;;;-15.96;69.76;100494.23;1729867;82;25837;-55
2021/01/19 02:25:56;;;;;;;152.30;47.53;;;;;;;-15.91;70.16;100487.70;1737940;82;25703;-52
2021/01/19 02:28:37;;;;;;;182.62;54.08;;;;;;;-15.91;70.01;100486.41;1740037;82;25662;-53
2021/01/19 02:32:02;;;;;;;176.22;52.27;;;;;;;-15.86;70.47;100480.34;1737961;82;26347;-52
2021/01/19 02:34:53;;;;;;;154.55;51.20;;;;;;;-15.83;70.36;100481.83;1739393;82;25617;-54
2021/01/19 02:37:53;;;;;;;157.47;51.93;;;;;;;-15.67;70.70;100477.42;1887681;75;25507;-54
2021/01/19 02:40:22;;;;;;;159.32;50.35;;;;;;;-15.68;70.67;100478.36;1857393;77;25565;-46
2021/01/19 02:42:57;;;;;;;161.68;53.05;;;;;;;-15.61;70.72;100470.38;1858902;77;25954;-52
2021/01/19 02:45:25;;;;;;;176.00;53.20;;;;;;;-15.54;70.82;100466.31;1858655;77;25527;-54
2021/01/19 02:47:51;;;;;;;176.72;53.30;;;;;;;-15.53;70.71;100464.53;1858731;77;25407;-55
2021/01/19 02:50:18;;;;;;;169.28;51.85;;;;;;;-15.50;70.65;100462.48;1858704;77;25334;-48
2021/01/19 02:52:47;;;;;;;158.57;49.10;;;;;;;-15.43;70.79;100456.28;1858671;77;25594;-55
2021/01/19 02:55:14;;;;;;;169.10;51.68;;;;;;;-15.34;70.79;100457.23;1858704;77;25686;-52
2021/01/19 02:58:01;;;;;;;166.75;50.88;;;;;;;-15.27;70.84;100450.08;1858551;77;25736;-55
2021/01/19 03:00:41;;;;;;;164.00;51.80;;;;;;;-15.25;70.73;100440.37;1858153;77;25558;-54
2021/01/19 03:03:11;;;;;;;166.40;52.62;;;;;;;-15.19;70.59;100440.78;1858089;77;25691;-54
2021/01/19 03:05:38;;;;;;;;;;;;;;;-15.12;70.66;100444.45;1828593;77;25589;-48
2021/01/19 03:08:08;;;;;;;146.37;46.92;;;;;;;-15.11;70.58;100438.31;1858533;76;25756;-55
2021/01/19 03:10:38;;;;;;;149.95;48.87;;;;;;;-15.11;70.49;100427.45;1858688;77;25543;-55
2021/01/19 03:13:05;;;;;;;162.92;50.17;;;;;;;-15.07;70.57;100425.39;1858572;77;25624;-55
2021/01/19 03:15:32;;;;;;;158.03;51.60;;;;;;;-14.93;70.63;100427.56;1825411;77;25413;-55
2021/01/19 03:17:59;;;;;;;186.82;53.68;;;;;;;-14.93;70.63;100427.56;1858744;77;25356;-55
2021/01/19 03:20:27;;;;;;;180.12;51.73;;;;;;;-14.88;70.54;100424.52;1858686;77;27049;-55
2021/01/19 03:22:53;;;;;;;178.32;53.78;;;;;;;-14.88;70.54;100424.52;1858396;77;25660;-54
2021/01/19 03:25:21;;;;;;;178.35;51.70;;;;;;;-14.69;70.75;100436.17;1858567;77;26325;-55
2021/01/19 03:27:48;;;;;;;174.23;51.50;;;;;;;-14.69;70.75;100436.17;1858579;77;25503;-55
2021/01/19 03:30:16;;;;;;;165.82;52.35;;;;;;;-14.74;70.75;100421.95;1858593;77;25204;-55
2021/01/19 03:32:43;;;;;;;114.07;40.90;;;;;;;-14.62;70.75;100427.80;1858815;77;25687;-56
2021/01/19 03:35:11;;;;;;;163.15;52.08;;;;;;;-14.63;70.98;100409.30;1858477;77;25467;-55
2021/01/19 03:37:38;;;;;;;179.27;54.10;;;;;;;-14.60;70.94;100415.52;1834791;77;25783;-56
2021/01/19 03:40:07;;;;;;;158.50;51.28;;;;;;;-14.58;70.83;100410.98;1833347;77;25802;-55
2021/01/19 03:42:34;;;;;;;165.95;53.80;;;;;;;-14.56;70.81;100407.24;1833612;78;25536;-55
2021/01/19 03:45:01;;;;;;;163.18;52.78;;;;;;;-14.49;71.01;100408.79;1833269;76;26716;-51
2021/01/19 03:47:28;;;;;;;184.20;55.98;;;;;;;-14.48;70.99;100402.64;1832978;78;25601;-55
2021/01/19 03:49:54;;;;;;;166.62;50.65;;;;;;;-14.45;70.94;100403.66;1832866;78;25571;-54
2021/01/19 03:52:21;;;;;;;170.20;53.78;;;;;;;-14.34;71.09;100396.15;1832824;78;25638;-50
2021/01/19 03:54:48;;;;;;;180.12;54.27;;;;;;;-14.34;71.09;100396.15;1832719;78;25537;-51
2021/01/19 03:57:15;;;;;;;174.27;51.80;;;;;;;-14.29;71.12;100400.44;1832771;78;27403;-55
2021/01/19 03:59:42;;;;;;;174.23;51.45;;;;;;;-14.26;71.67;100392.34;1832779;78;25686;-55
2021/01/19 04:02:08;;;;;;;173.00;55.08;;;;;;;-14.22;71.68;100394.17;1832642;78;25527;-53
2021/01/19 04:04:35;;;;;;;167.62;50.23;;;;;;;-14.19;71.71;100392.59;1832726;78;25518;-53
2021/01/19 04:07:02;;;;;;;164.22;52.20;;;;;;;-14.19;71.71;100392.59;1832738;78;25658;-46
2021/01/19 04:09:29;;;;;;;156.12;51.73;;;;;;;-14.14;71.70;100381.27;1832730;78;25665;-51
2021/01/19 04:11:56;;;;;;;144.68;49.05;;;;;;;-14.04;71.85;100388.53;1832540;78;25579;-54
2021/01/19 04:14:22;;;;;;;167.07;51.28;;;;;;;-14.02;71.96;100373.59;1832556;78;25657;-56
2021/01/19 04:16:49;;;;;;;169.15;51.30;;;;;;;-13.92;72.14;100376.95;1832275;78;25563;-54
2021/01/19 04:19:16;;;;;;;165.57;50.98;;;;;;;-13.81;72.09;100368.09;1832391;76;25584;-45
2021/01/19 04:21:43;;;;;;;166.43;53.45;;;;;;;-13.81;72.09;100368.09;1832683;78;26135;-56
2021/01/19 04:24:10;;;;;;;172.90;51.53;;;;;;;-13.71;72.19;100366.73;1832545;78;25831;-56
2021/01/19 04:26:37;;;;;;;162.53;50.78;;;;;;;-13.60;72.04;100383.89;1832591;78;25547;-56
2021/01/19 04:29:03;;;;;;;155.27;50.50;;;;;;;-13.59;72.04;100364.23;1832655;78;25582;-55
2021/01/19 04:31:30;;;;;;;152.30;48.68;;;;;;;-13.54;72.11;100358.09;1832753;78;25622;-49
2021/01/19 04:33:57;;;;;;;159.25;50.85;;;;;;;-13.39;72.30;100381.80;1832537;78;25963;-42
2021/01/19 04:36:24;;;;;;;162.82;53.28;;;;;;;-13.20;72.27;100376.86;1832524;76;25507;-53
2021/01/19 04:38:51;;;;;;;158.75;52.33;;;;;;;-13.20;72.27;100376.86;1832747;78;25508;-42
2021/01/19 04:41:20;;;;;;;163.20;50.08;;;;;;;-13.25;72.10;100352.27;1832675;78;25563;-55
2021/01/19 04:43:48;;;;;;;163.00;51.05;;;;;;;-13.19;72.09;100366.80;1832895;78;25562;-51
2021/01/19 04:46:15;;;;;;;154.47;47.45;;;;;;;-13.13;72.15;100356.73;1832729;78;26024;-40
2021/01/19 04:48:43;;;;;;;164.97;49.00;;;;;;;-13.13;72.07;100348.92;1832629;78;25526;-53
2021/01/19 04:51:15;;;;;;;165.35;51.92;;;;;;;-13.04;72.13;100350.59;1802816;78;25528;-55
2021/01/19 04:53:46;;;;;;;164.43;49.40;;;;;;;-12.99;72.09;100355.70;1831279;78;25698;-52
2021/01/19 04:56:18;;;;;;;154.45;49.58;;;;;;;-12.88;72.39;100355.10;1832548;78;25590;-49
2021/01/19 04:58:49;;;;;;;156.30;49.40;;;;;;;-12.81;72.16;100356.92;1832672;78;25684;-54
2021/01/19 05:01:39;;;;;;;155.95;49.10;;;;;;;-12.73;72.08;100350.11;1832477;78;25638;-55
2021/01/19 05:04:50;;;;;;;157.30;47.62;;;;;;;-12.72;72.09;100350.45;1832574;78;25704;-53
2021/01/19 05:07:33;;;;;;;161.22;50.05;;;;;;;-12.68;72.00;100346.55;1832405;78;25607;-55
2021/01/19 05:10:13;;;;;;;157.27;52.15;;;;;;;-12.67;71.90;100350.80;1832496;78;25638;-51
2021/01/19 05:12:45;;;;;;;148.38;51.90;;;;;;;-12.70;71.94;100344.59;1832769;78;25687;-50
2021/01/19 05:15:15;;;;;;;162.25;49.13;;;;;;;-12.71;72.13;100329.95;1831499;77;25715;-54
2021/01/19 05:17:43;;;;;;;151.37;48.23;;;;;;;-12.75;72.17;100323.40;1832568;78;25694;-42
2021/01/19 05:20:11;;;;;;;160.50;48.28;;;;;;;-12.74;72.30;100330.25;1832537;78;25610;-54
2021/01/19 05:22:38;;;;;;;146.25;48.50;;;;;;;-12.68;72.57;100330.45;1832851;78;25647;-45
2021/01/19 05:25:07;;;;;;;143.52;48.80;;;;;;;-12.63;72.62;100339.08;1832535;78;25672;-55
2021/01/19 05:27:34;;;;;;;154.30;48.50;;;;;;;-12.57;72.72;100338.47;1832641;78;25560;-53
2021/01/19 05:30:04;;;;;;;143.55;45.10;;;;;;;-12.56;72.76;100330.15;1832501;78;25603;-49
2021/01/19 05:32:42;;;;;;;135.82;46.37;;;;;;;-12.48;72.99;100328.41;1832504;78;25597;-50
2021/01/19 05:35:14;;;;;;;137.12;45.28;;;;;;;-12.43;73.01;100326.16;1832434;77;25718;-54
2021/01/19 05:37:56;;;;;;;148.30;47.08;;;;;;;-12.37;72.97;100325.19;1832269;76;25979;-57
2021/01/19 05:40:27;;;;;;;145.25;47.43;;;;;;;-12.33;73.20;100322.08;1828841;78;25667;-49
2021/01/19 05:42:55;;;;;;;145.90;44.38;;;;;;;-12.31;73.01;100321.43;1832525;78;25733;-51
2021/01/19 05:45:22;;;;;;;136.43;47.73;;;;;;;-12.25;73.20;100323.41;1832429;78;25725;-53
2021/01/19 05:47:50;;;;;;;148.22;45.85;;;;;;;-12.23;73.31;100314.94;1832562;78;25630;-54
2021/01/19 05:50:17;;;;;;;147.75;46.68;;;;;;;-12.18;73.34;100315.77;1832561;77;25966;-55
2021/01/19 05:52:46;;;;;;;148.38;47.73;;;;;;;-12.13;73.52;100319.21;1832379;78;25622;-55
2021/01/19 05:55:13;;;;;;;157.00;49.60;;;;;;;-12.03;73.67;100323.80;1832760;78;25626;-55
2021/01/19 05:57:39;;;;;;;135.68;45.17;;;;;;;-11.97;73.66;100319.22;1832451;78;25599;-54
2021/01/19 06:00:08;;;;;;;133.57;45.85;;;;;;;-11.88;73.72;100322.15;1832501;76;25584;-54
2021/01/19 06:02:43;;;;;;;140.70;45.97;;;;;;;-11.78;73.74;100319.39;1832826;78;26717;-51
2021/01/19 06:05:13;;;;;;;137.12;45.50;;;;;;;-11.73;73.54;100321.49;1832394;78;25566;-54
2021/01/19 06:07:46;;;;;;;148.93;50.75;;;;;;;-11.65;73.74;100330.13;1832366;78;25606;-50
2021/01/19 06:10:20;;;;;;;148.95;48.92;;;;;;;-11.56;73.72;100327.06;1832591;78;25613;-55
2021/01/19 06:12:47;;;;;;;141.88;48.17;;;;;;;-11.51;73.52;100321.33;1832550;77;25117;-55
2021/01/19 06:15:15;;;;;;;161.22;53.83;;;;;;;-11.47;73.54;100321.34;1832553;78;25733;-55
2021/01/19 06:17:42;;;;;;;157.15;50.43;;;;;;;-11.47;73.33;100312.20;1802571;78;25585;-54
2021/01/19 06:20:10;;;;;;;146.85;50.55;;;;;;;-11.46;73.25;100321.18;1832481;78;25631;-55
2021/01/19 06:22:37;;;;;;;146.18;51.65;;;;;;;-11.48;73.38;100315.28;1832568;78;25509;-53
2021/01/19 06:25:09;;;;;;;143.50;50.15;;;;;;;-11.46;73.41;100319.88;1832640;78;25487;-47
2021/01/19 06:27:37;;;;;;;141.05;48.63;;;;;;;-11.44;73.35;100307.94;1831895;78;25880;-55
2021/01/19 06:30:09;;;;;;;145.53;46.28;;;;;;;-11.42;73.47;100313.83;1832446;76;25523;-55
2021/01/19 06:32:45;;;;;;;129.60;45.52;;;;;;;-11.43;73.54;100317.91;1831181;78;25660;-54
2021/01/19 06:35:23;;;;;;;152.75;48.45;;;;;;;-11.46;73.42;100328.18;1831502;78;25511;-45
2021/01/19 06:37:53;;;;;;;148.82;47.03;;;;;;;-11.43;73.64;100329.66;1847956;76;25649;-50
2021/01/19 06:40:24;;;;;;;139.40;45.58;;;;;;;-11.38;74.02;100320.84;1851179;77;25889;-48
2021/01/19 06:42:59;;;;;;;145.45;49.67;;;;;;;-11.34;73.88;100316.91;1849502;76;25616;-48
2021/01/19 06:45:27;;;;;;;138.37;46.50;;;;;;;-11.31;74.04;100316.09;1852461;76;25680;-53
2021/01/19 06:47:56;;;;;;;155.40;48.75;;;;;;;-11.23;73.99;100318.38;1847220;76;25744;-55
2021/01/19 06:50:29;;;;;;;142.45;45.67;;;;;;;-11.15;74.11;100321.80;1833022;77;25637;-55
2021/01/19 06:53:22;;;;;;;145.47;49.20;;;;;;;-11.07;74.04;100317.02;1843956;77;26730;-56
2021/01/19 06:55:57;;;;;;;144.77;45.95;;;;;;;-11.01;73.97;100306.42;1843747;77;25586;-46
2021/01/19 06:58:48;;;;;;;143.22;50.60;;;;;;;-10.96;73.95;100294.47;1845413;76;25667;-56
2021/01/19 07:01:27;;;;;;;149.42;48.58;;;;;;;-10.91;74.00;100290.05;1849630;77;25546;-51
2021/01/19 07:04:19;;;;;;;153.07;51.85;;;;;;;-10.90;73.80;100293.78;1849565;77;25629;-56
2021/01/19 07:07:14;;;;;;;164.10;53.50;;;;;;;-10.86;73.84;100289.06;1849599;77;25748;-54
2021/01/19 07:10:15;;;;;;;156.72;54.42;;;;;;;-10.80;73.82;100279.72;1849372;77;25576;-51
2021/01/19 07:13:03;;;;;;;169.93;54.73;;;;;;;-10.83;73.75;100276.94;1849578;77;25589;-55
2021/01/19 07:16:06;;;;;;;157.82;53.55;;;;;;;-10.81;73.88;100267.63;1849517;77;25670;-56
2021/01/19 07:18:48;;;;;;;152.90;51.08;;;;;;;-10.77;73.96;100264.50;1849649;77;25629;-49
2021/01/19 07:21:18;;;;;;;168.30;53.05;;;;;;;-10.78;74.07;100255.52;1848948;77;25767;-49
2021/01/19 07:23:53;;;;;;;161.68;57.00;;;;;;;-10.78;74.11;100264.17;1849773;77;25646;-53
2021/01/19 07:26:34;;;;;;;169.53;56.70;;;;;;;-10.77;74.27;100265.01;1834144;77;25671;-53
2021/01/19 07:29:01;;;;;;;161.88;56.92;;;;;;;-10.72;74.32;100267.92;1840504;77;25601;-53
2021/01/19 07:31:28;;;;;;;166.57;55.78;;;;;;;-10.67;74.43;100270.00;1833444;76;25586;-51
2021/01/19 07:33:58;;;;;;;174.65;59.50;;;;;;;-10.64;74.47;100260.52;1848686;76;25750;-57
2021/01/19 07:36:27;;;;;;;168.02;59.08;;;;;;;-10.54;74.51;100261.95;1857173;76;25673;-51
2021/01/19 07:38:54;;;;;;;172.82;56.35;;;;;;;-10.50;74.38;100249.82;1858918;77;30111;-53
2021/01/19 07:41:35;;;;;;;158.65;56.58;;;;;;;-10.46;74.48;100249.81;1859193;77;25351;-52
2021/01/19 07:44:04;;;;;;;179.90;60.25;;;;;;;-10.42;74.47;100245.38;1859171;77;25340;-52
2021/01/19 07:46:30;;;;;;;165.28;58.50;;;;;;;-10.32;74.49;100253.48;1859051;77;25891;-51
2021/01/19 07:49:10;;;;;;;175.65;60.15;;;;;;;-10.26;74.40;100247.04;1859098;77;25525;-54
2021/01/19 07:51:46;;;;;;;176.53;62.38;;;;;;;-10.22;74.33;100257.97;1860208;76;25639;-55
2021/01/19 07:54:16;;;;;;;183.45;62.67;;;;;;;-10.17;74.18;100262.19;1851732;76;25623;-50
2021/01/19 07:56:43;;;;;;;186.82;62.10;;;;;;;-10.14;73.93;100257.41;1857242;77;25529;-51
2021/01/19 07:59:19;;;;;;;197.62;64.32;;;;;;;-10.18;73.68;100266.61;1859073;77;25690;-54
2021/01/19 08:01:57;;;;;;;170.12;62.40;;;;;;;-10.20;73.58;100265.98;1858753;77;25332;-56
2021/01/19 08:04:33;;;;;;;185.20;68.45;;;;;;;-10.20;73.82;100265.98;1859153;77;25694;-50
2021/01/19 08:07:14;;;;;;;199.40;67.35;;;;;;;-10.19;73.73;100262.86;1859081;77;25536;-54
2021/01/19 08:09:50;;;;;;;197.03;66.10;;;;;;;-10.12;73.73;100262.48;1817191;78;25613;-52
2021/01/19 08:12:17;;;;;;;198.87;67.45;;;;;;;-10.17;73.85;100265.61;1788197;80;25525;-54
2021/01/19 08:14:48;;;;;;;203.88;72.70;;;;;;;-10.15;73.82;100266.27;1787255;79;26235;-53
2021/01/19 08:17:15;;;;;;;195.30;68.15;;;;;;;-10.15;73.76;100274.13;1786980;80;25711;-55
2021/01/19 08:19:46;;;;;;;190.97;66.17;;;;;;;-10.15;73.98;100274.13;1759416;80;25642;-58
2021/01/19 08:22:18;;;;;;;170.72;63.50;;;;;;;-10.11;73.82;100269.83;1787296;79;25634;-52
2021/01/19 08:24:45;;;;;;;202.13;67.12;;;;;;;-10.06;73.89;100260.95;1785587;80;26381;-53
2021/01/19 08:27:12;;;;;;;194.40;65.17;;;;;;;-10.05;74.00;100258.67;1787279;80;25773;-55
2021/01/19 08:29:39;;;;;;;189.75;66.57;;;;;;;-10.05;74.01;100259.98;1787143;80;26372;-52
2021/01/19 08:32:08;;;;;;;198.43;66.95;;;;;;;-10.06;73.97;100250.48;1781260;80;25658;-55
2021/01/19 08:34:38;;;;;;;210.43;68.42;;;;;;;-10.00;74.16;100257.15;1756095;81;26626;-54
2021/01/19 08:37:06;;;;;;;197.90;68.55;;;;;;;-9.94;74.15;100259.58;1756104;81;25681;-54
2021/01/19 08:39:33;;;;;;;204.60;73.80;;;;;;;-9.89;74.10;100265.09;1755564;81;26313;-47
2021/01/19 08:41:59;;;;;;;192.40;67.15;;;;;;;-9.82;74.15;100276.99;1755846;81;25694;-56
2021/01/19 08:44:26;;;;;;;189.55;70.17;;;;;;;-9.80;74.10;100275.01;1756143;81;25655;-50
2021/01/19 08:46:55;;;;;;;201.62;71.67;;;;;;;-9.77;74.11;100264.99;1755166;81;25698;-54
2021/01/19 08:49:23;;;;;;;205.43;71.87;;;;;;;-9.67;74.22;100258.69;1756057;81;25441;-43
2021/01/19 08:51:51;;;;;;;202.25;73.40;;;;;;;-9.64;74.06;100258.34;1756118;81;25963;-57
2021/01/19 08:54:19;;;;;;;197.37;72.55;;;;;;;-9.60;73.98;100258.31;1755877;81;25786;-54
2021/01/19 08:56:47;;;;;;;202.38;66.82;;;;;;;-9.59;73.90;100255.49;1756200;81;25555;-52
2021/01/19 08:59:15;;;;;;;206.00;72.15;;;;;;;-9.58;73.99;100249.78;1756069;81;25630;-58
2021/01/19 09:01:54;;;;;;;202.22;68.80;;;;;;;-9.60;73.78;100241.30;1756108;81;25602;-50
2021/01/19 09:04:29;;;;;;;199.55;71.33;;;;;;;-9.59;73.89;100243.70;1755937;81;25723;-54
2021/01/19 09:07:11;;;;;;;193.52;64.97;;;;;;;-9.62;74.01;100245.88;1755957;81;25677;-55
2021/01/19 09:09:47;;;;;;;207.57;72.92;;;;;;;-9.63;73.92;100242.95;1740413;81;26447;-53
2021/01/19 09:12:17;;;;;;;198.78;71.97;;;;;;;-9.61;74.04;100248.82;1736342;82;25631;-52
2021/01/19 09:14:53;;;;;;;211.47;71.15;;;;;;;-9.61;74.04;100242.27;1731108;81;25629;-53
2021/01/19 09:17:27;;;;;;;195.80;70.20;;;;;;;-9.58;74.14;100232.77;1730740;82;26876;-54
2021/01/19 09:20:10;;;;;;;194.93;76.25;;;;;;;-9.53;74.45;100231.73;1730233;82;25739;-50
2021/01/19 09:22:37;;;;;;;209.92;73.25;;;;;;;-9.49;74.31;100228.25;1730348;82;26095;-47
2021/01/19 09:25:06;;;;;;;212.17;73.92;;;;;;;-9.45;74.20;100233.44;1730276;82;25683;-57
2021/01/19 09:27:33;;;;;;;216.53;82.70;;;;;;;-9.41;74.32;100227.67;1730367;82;25600;-55
2021/01/19 09:30:15;;;;;;;203.20;71.87;;;;;;;-9.34;74.46;100222.52;1730285;82;25826;-54
2021/01/19 09:32:43;;;;;;;194.93;72.17;;;;;;;-9.27;74.58;100227.86;1730177;82;25666;-52
2021/01/19 09:35:14;;;;;;;210.83;77.70;;;;;;;-9.21;74.55;100221.88;1730412;82;25712;-57
2021/01/19 09:37:42;;;;;;;204.10;74.42;;;;;;;-9.09;74.66;100228.31;1730093;82;26236;-55
2021/01/19 09:40:10;;;;;;;211.68;79.72;;;;;;;-9.01;74.51;100231.31;1730281;82;25671;-55
2021/01/19 09:42:40;;;;;;;231.23;79.60;;;;;;;-8.95;74.44;100231.91;1730111;82;25719;-54
2021/01/19 09:45:11;;;;;;;;;;;;;;;-8.92;74.12;100217.61;1732568;82;25744;-48
2021/01/19 09:47:40;;;;;;;197.68;72.05;;;;;;;-8.90;74.16;100228.25;1730225;82;25692;-52
2021/01/19 09:50:10;;;;;;;210.08;75.52;;;;;;;-8.85;74.14;100230.33;1730375;82;34838;-52
2021/01/19 09:52:40;;;;;;;212.25;78.30;;;;;;;-8.84;74.09;100224.07;1725901;82;25636;-55
2021/01/19 09:55:11;;;;;;;217.13;81.47;;;;;;;-8.78;74.26;100217.27;1725996;82;25946;-52
2021/01/19 09:57:39;;;;;;;210.65;80.55;;;;;;;-8.76;74.39;100210.86;1730078;82;25925;-50
2021/01/19 10:00:10;;;;;;;228.65;84.45;;;;;;;-8.73;74.29;100214.94;1730287;82;25728;-53
2021/01/19 10:02:39;;;;;;;211.57;79.10;;;;;;;-8.74;74.21;100220.66;1730171;82;25617;-49
2021/01/19 10:05:08;;;;;;;213.70;77.58;;;;;;;-8.77;74.26;100218.39;1730526;82;25678;-52
2021/01/19 10:07:36;;;;;;;203.83;78.22;;;;;;;-8.73;74.43;100210.50;1730206;82;25979;-51
2021/01/19 10:10:14;;;;;;;200.93;82.40;;;;;;;-8.66;74.53;100200.89;1729864;81;25725;-46
2021/01/19 10:12:43;;;;;;;210.13;78.25;;;;;;;-8.60;74.51;100199.33;1730261;82;25713;-55
2021/01/19 10:15:15;;;;;;;203.20;78.97;;;;;;;-8.51;74.52;100200.02;1730322;82;25648;-53
2021/01/19 10:17:42;;;;;;;204.47;82.22;;;;;;;-8.45;74.52;100193.53;1730286;82;25683;-52
2021/01/19 10:20:14;;;;;;;236.65;82.90;;;;;;;-8.38;74.34;100185.69;1730149;82;26229;-43
2021/01/19 10:22:45;;;;;;;218.30;85.53;;;;;;;-8.36;74.29;100170.59;1729949;82;26333;-47
2021/01/19 10:25:25;;;;;;;215.15;81.92;;;;;;;-8.35;74.11;100162.22;1730182;82;25640;-52
2021/01/19 10:28:01;;;;;;;221.80;84.47;;;;;;;-8.36;74.20;100160.11;1730317;82;25672;-49
2021/01/19 10:30:36;;;;;;;215.72;85.45;;;;;;;-8.32;74.43;100157.41;1730358;82;25705;-56
2021/01/19 10:33:04;;;;;;;214.55;84.00;;;;;;;-8.28;74.37;100156.52;1730344;82;26767;-53
2021/01/19 10:35:34;;;;;;;220.37;81.60;;;;;;;-8.21;74.46;100163.95;1730083;82;25700;-54
2021/01/19 10:38:06;;;;;;;220.25;84.45;;;;;;;-8.12;74.61;100158.06;1730258;82;26107;-54
2021/01/19 10:40:34;;;;;;;209.80;79.07;;;;;;;-8.03;74.52;100162.70;1730256;82;25715;-55
2021/01/19 10:43:09;;;;;;;216.50;77.13;;;;;;;-7.98;74.31;100153.23;1730431;82;25717;-56
2021/01/19 10:45:42;;;;;;;221.57;80.62;;;;;;;-7.94;74.14;100153.66;1730326;82;25729;-53
2021/01/19 10:48:21;;;;;;;217.32;78.65;;;;;;;-7.92;74.23;100158.22;1730146;82;25585;-49
2021/01/19 10:50:48;;;;;;;209.98;81.35;;;;;;;-7.89;74.15;100160.47;1730265;82;25664;-51
2021/01/19 10:53:28;;;;;;;218.63;82.65;;;;;;;-7.84;74.22;100156.77;1729917;82;25712;-53
2021/01/19 10:55:56;;;;;;;212.05;79.45;;;;;;;-7.76;74.21;100157.94;1730011;82;25672;-55
2021/01/19 10:58:23;;;;;;;218.63;80.67;;;;;;;-7.77;73.95;100152.87;1730259;82;26670;-51
2021/01/19 11:00:51;;;;;;;229.97;86.02;;;;;;;-7.76;73.89;100155.83;1730162;82;25599;-50
2021/01/19 11:03:18;;;;;;;221.95;84.90;;;;;;;-7.77;73.85;100148.42;1730276;81;25607;-52
2021/01/19 11:05:45;;;;;;;215.10;84.35;;;;;;;-7.75;74.05;100142.47;1730261;82;25663;-55
2021/01/19 11:08:12;;;;;;;222.65;81.50;;;;;;;-7.71;74.12;100135.85;1730189;82;26331;-52
2021/01/19 11:10:39;;;;;;;207.47;82.88;;;;;;;-7.63;74.28;100135.38;1730099;81;25754;-53
2021/01/19 11:13:06;;;;;;;218.55;83.07;;;;;;;-7.56;74.35;100125.72;1730254;82;25641;-56
2021/01/19 11:15:33;;;;;;;227.55;85.45;;;;;;;-7.53;74.31;100116.94;1730045;82;25669;-54
2021/01/19 11:18:00;;;;;;;202.32;78.87;;;;;;;-7.42;74.48;100118.70;1730105;82;25837;-50